sensor_id;sensor_type;location;lat;lon;timestamp;pressure;altitude;pressure_sealevel;temperature
40624;BMP280;26325;48.594;11.650;2023-07-29T21:27:36;96304.25;;;20.39
40624;BMP280;26325;48.594;11.650;2023-07-29T21:30:04;96301.59;;;20.31
40624;BMP280;26325;48.594;11.650;2023-07-29T21:32:30;96306.22;;;20.34
40624;BMP280;26325;48.594;11.650;2023-07-29T21:34:56;96307.00;;;20.34
40624;BMP280;26325;48.594;11.650;2023-07-29T21:37:32;96291.88;;;20.31
40624;BMP280;26325;48.594;11.650;2023-07-29T21:39:58;96302.84;;;20.33
40624;BMP280;26325;48.594;11.650;2023-07-29T21:42:24;96305.00;;;20.31
40624;BMP280;26325;48.594;11.650;2023-07-29T21:44:49;96306.06;;;20.30
40624;BMP280;26325;48.594;11.650;2023-07-29T21:47:15;96307.88;;;20.22
40624;BMP280;26325;48.594;11.650;2023-07-29T21:49:40;96302.22;;;20.28
40624;BMP280;26325;48.594;11.650;2023-07-29T21:52:06;96302.78;;;20.08
40624;BMP280;26325;48.594;11.650;2023-07-29T21:54:32;96313.13;;;20.13
40624;BMP280;26325;48.594;11.650;2023-07-29T21:56:57;96308.81;;;20.09
40624;BMP280;26325;48.594;11.650;2023-07-29T21:59:23;96304.66;;;20.24
40624;BMP280;26325;48.594;11.650;2023-07-29T22:01:55;96307.50;;;20.36
40624;BMP280;26325;48.594;11.650;2023-07-29T22:04:20;96306.69;;;20.27
40624;BMP280;26325;48.594;11.650;2023-07-29T22:07:00;96303.91;;;20.32
40624;BMP280;26325;48.594;11.650;2023-07-29T22:09:26;96299.44;;;20.24
40624;BMP280;26325;48.594;11.650;2023-07-29T22:11:52;96289.09;;;20.20
40624;BMP280;26325;48.594;11.650;2023-07-29T22:14:17;96301.13;;;20.21
40624;BMP280;26325;48.594;11.650;2023-07-29T22:16:52;96296.16;;;20.11
40624;BMP280;26325;48.594;11.650;2023-07-29T22:19:20;96298.19;;;20.22
40624;BMP280;26325;48.594;11.650;2023-07-29T22:21:46;96298.53;;;20.29
40624;BMP280;26325;48.594;11.650;2023-07-29T22:24:16;96296.53;;;20.34
40624;BMP280;26325;48.594;11.650;2023-07-29T22:26:42;96301.19;;;20.37
40624;BMP280;26325;48.594;11.650;2023-07-29T22:29:09;96303.81;;;20.37
40624;BMP280;26325;48.594;11.650;2023-07-29T22:31:38;96310.13;;;20.36
40624;BMP280;26325;48.594;11.650;2023-07-29T22:34:07;96304.13;;;20.36
40624;BMP280;26325;48.594;11.650;2023-07-29T22:36:36;96304.91;;;20.36
40624;BMP280;26325;48.594;11.650;2023-07-29T22:39:03;96304.13;;;20.36
40624;BMP280;26325;48.594;11.650;2023-07-29T22:41:29;96295.25;;;20.23
40624;BMP280;26325;48.594;11.650;2023-07-29T22:43:57;96294.84;;;20.30
40624;BMP280;26325;48.594;11.650;2023-07-29T22:46:23;96299.00;;;20.39
40624;BMP280;26325;48.594;11.650;2023-07-29T22:48:49;96291.28;;;20.34
40624;BMP280;26325;48.594;11.650;2023-07-29T22:51:16;96297.50;;;20.38
40624;BMP280;26325;48.594;11.650;2023-07-29T22:53:42;96289.13;;;20.28
40624;BMP280;26325;48.594;11.650;2023-07-29T22:56:07;96294.34;;;20.28
40624;BMP280;26325;48.594;11.650;2023-07-29T22:58:33;96285.84;;;20.31
40624;BMP280;26325;48.594;11.650;2023-07-29T23:00:59;96286.63;;;20.31
40624;BMP280;26325;48.594;11.650;2023-07-29T23:03:29;96286.50;;;20.28
40624;BMP280;26325;48.594;11.650;2023-07-29T23:05:57;96279.50;;;20.07
40624;BMP280;26325;48.594;11.650;2023-07-29T23:08:22;96291.06;;;20.06
40624;BMP280;26325;48.594;11.650;2023-07-29T23:10:50;96287.56;;;20.19
40624;BMP280;26325;48.594;11.650;2023-07-29T23:13:16;96277.63;;;19.99
40624;BMP280;26325;48.594;11.650;2023-07-29T23:15:41;96280.28;;;20.07
40624;BMP280;26325;48.594;11.650;2023-07-29T23:18:07;96268.56;;;20.13
40624;BMP280;26325;48.594;11.650;2023-07-29T23:20:36;96262.69;;;20.00
40624;BMP280;26325;48.594;11.650;2023-07-29T23:23:03;96272.19;;;19.87
40624;BMP280;26325;48.594;11.650;2023-07-29T23:25:30;96268.81;;;19.87
40624;BMP280;26325;48.594;11.650;2023-07-29T23:27:56;96270.69;;;19.95
40624;BMP280;26325;48.594;11.650;2023-07-29T23:30:22;96258.81;;;19.97
40624;BMP280;26325;48.594;11.650;2023-07-29T23:32:52;96262.38;;;20.01
40624;BMP280;26325;48.594;11.650;2023-07-29T23:35:18;96265.00;;;20.09
40624;BMP280;26325;48.594;11.650;2023-07-29T23:37:43;96263.94;;;20.10
40624;BMP280;26325;48.594;11.650;2023-07-29T23:40:09;96266.28;;;20.20
40624;BMP280;26325;48.594;11.650;2023-07-29T23:42:35;96268.13;;;20.20
40624;BMP280;26325;48.594;11.650;2023-07-29T23:45:04;96273.38;;;20.20
40624;BMP280;26325;48.594;11.650;2023-07-29T23:47:29;96259.00;;;20.17
40624;BMP280;26325;48.594;11.650;2023-07-29T23:49:55;96246.69;;;20.18
40624;BMP280;26325;48.594;11.650;2023-07-29T23:52:25;96255.91;;;20.07
40624;BMP280;26325;48.594;11.650;2023-07-29T23:54:51;96243.59;;;20.16
40624;BMP280;26325;48.594;11.650;2023-07-29T23:57:16;96246.38;;;20.11
40624;BMP280;26325;48.594;11.650;2023-07-29T23:59:42;96248.03;;;20.07
